sensor_id;sensor_type;location;lat;lon;timestamp;temperature;humidity
39401;DHT22;54391;50.000;7.360;2022-11-27T00:00:09;3.00;86.80
39401;DHT22;54391;50.000;7.360;2022-11-27T00:02:39;3.00;85.60
39401;DHT22;54391;50.000;7.360;2022-11-27T00:05:08;3.10;86.70
39401;DHT22;54391;50.000;7.360;2022-11-27T00:07:35;3.00;84.90
39401;DHT22;54391;50.000;7.360;2022-11-27T00:10:04;3.00;85.80
39401;DHT22;54391;50.000;7.360;2022-11-27T00:12:31;3.00;87.50
39401;DHT22;54391;50.000;7.360;2022-11-27T00:14:59;2.90;87.50
39401;DHT22;54391;50.000;7.360;2022-11-27T00:17:29;3.00;87.40
39401;DHT22;54391;50.000;7.360;2022-11-27T00:19:56;2.90;87.60
39401;DHT22;54391;50.000;7.360;2022-11-27T00:22:24;2.80;88.10
39401;DHT22;54391;50.000;7.360;2022-11-27T00:24:53;2.80;88.80
39401;DHT22;54391;50.000;7.360;2022-11-27T00:27:20;2.90;88.90
39401;DHT22;54391;50.000;7.360;2022-11-27T00:29:48;2.80;89.90
39401;DHT22;54391;50.000;7.360;2022-11-27T00:32:15;2.90;91.00
39401;DHT22;54391;50.000;7.360;2022-11-27T00:34:44;2.70;90.50
39401;DHT22;54391;50.000;7.360;2022-11-27T00:37:11;2.80;90.50
39401;DHT22;54391;50.000;7.360;2022-11-27T00:42:07;2.80;89.60
39401;DHT22;54391;50.000;7.360;2022-11-27T00:44:35;2.80;89.60
39401;DHT22;54391;50.000;7.360;2022-11-27T00:47:02;2.70;90.20
39401;DHT22;54391;50.000;7.360;2022-11-27T00:49:30;2.70;90.20
39401;DHT22;54391;50.000;7.360;2022-11-27T00:51:59;2.70;91.40
39401;DHT22;54391;50.000;7.360;2022-11-27T00:54:27;2.70;91.20
39401;DHT22;54391;50.000;7.360;2022-11-27T00:56:55;2.70;92.40
39401;DHT22;54391;50.000;7.360;2022-11-27T00:59:23;2.60;91.60
39401;DHT22;54391;50.000;7.360;2022-11-27T01:01:50;2.70;92.30
39401;DHT22;54391;50.000;7.360;2022-11-27T01:04:18;2.70;92.00
39401;DHT22;54391;50.000;7.360;2022-11-27T01:06:45;2.70;91.80
39401;DHT22;54391;50.000;7.360;2022-11-27T01:09:15;2.60;90.60
39401;DHT22;54391;50.000;7.360;2022-11-27T01:11:43;2.50;90.50
39401;DHT22;54391;50.000;7.360;2022-11-27T01:14:13;2.50;90.50
39401;DHT22;54391;50.000;7.360;2022-11-27T01:16:40;3.30;92.20
39401;DHT22;54391;50.000;7.360;2022-11-27T01:19:09;2.40;92.20
39401;DHT22;54391;50.000;7.360;2022-11-27T01:21:37;2.40;92.90
39401;DHT22;54391;50.000;7.360;2022-11-27T01:24:06;2.40;93.00
39401;DHT22;54391;50.000;7.360;2022-11-27T01:26:35;2.40;93.30
39401;DHT22;54391;50.000;7.360;2022-11-27T01:29:02;2.40;93.70
39401;DHT22;54391;50.000;7.360;2022-11-27T01:31:31;2.40;93.90
39401;DHT22;54391;50.000;7.360;2022-11-27T01:34:00;2.50;94.20
39401;DHT22;54391;50.000;7.360;2022-11-27T01:36:30;2.50;94.10
39401;DHT22;54391;50.000;7.360;2022-11-27T01:38:58;2.40;93.50
39401;DHT22;54391;50.000;7.360;2022-11-27T01:41:29;2.40;93.60
39401;DHT22;54391;50.000;7.360;2022-11-27T01:44:00;2.30;93.30
39401;DHT22;54391;50.000;7.360;2022-11-27T01:46:32;2.30;93.50
39401;DHT22;54391;50.000;7.360;2022-11-27T01:49:14;2.40;93.70
39401;DHT22;54391;50.000;7.360;2022-11-27T01:51:51;2.30;93.60
39401;DHT22;54391;50.000;7.360;2022-11-27T01:54:20;2.30;93.40
39401;DHT22;54391;50.000;7.360;2022-11-27T01:56:54;2.30;93.50
39401;DHT22;54391;50.000;7.360;2022-11-27T01:59:24;2.30;93.90
39401;DHT22;54391;50.000;7.360;2022-11-27T02:01:52;2.30;94.20
39401;DHT22;54391;50.000;7.360;2022-11-27T02:04:19;2.30;94.40
39401;DHT22;54391;50.000;7.360;2022-11-27T02:06:50;2.30;94.30
39401;DHT22;54391;50.000;7.360;2022-11-27T02:09:18;2.40;94.30
39401;DHT22;54391;50.000;7.360;2022-11-27T02:11:51;2.40;94.50
39401;DHT22;54391;50.000;7.360;2022-11-27T02:14:27;2.30;94.80
39401;DHT22;54391;50.000;7.360;2022-11-27T02:17:03;2.30;94.80
39401;DHT22;54391;50.000;7.360;2022-11-27T02:19:48;2.20;94.60
39401;DHT22;54391;50.000;7.360;2022-11-27T02:22:22;2.30;95.40
39401;DHT22;54391;50.000;7.360;2022-11-27T02:24:57;2.10;94.30
39401;DHT22;54391;50.000;7.360;2022-11-27T02:27:59;2.10;94.10
39401;DHT22;54391;50.000;7.360;2022-11-27T02:30:33;-1.70;92.00
39401;DHT22;54391;50.000;7.360;2022-11-27T02:33:02;2.20;94.30
39401;DHT22;54391;50.000;7.360;2022-11-27T02:35:37;2.30;95.20
39401;DHT22;54391;50.000;7.360;2022-11-27T02:38:08;2.30;95.40
39401;DHT22;54391;50.000;7.360;2022-11-27T02:40:39;2.30;94.00
39401;DHT22;54391;50.000;7.360;2022-11-27T02:43:11;2.10;93.40
39401;DHT22;54391;50.000;7.360;2022-11-27T02:45:45;2.10;92.60
39401;DHT22;54391;50.000;7.360;2022-11-27T02:48:15;2.10;92.10
39401;DHT22;54391;50.000;7.360;2022-11-27T02:50:45;2.10;92.30
39401;DHT22;54391;50.000;7.360;2022-11-27T02:53:18;2.00;92.10
39401;DHT22;54391;50.000;7.360;2022-11-27T02:55:48;2.00;91.90
39401;DHT22;54391;50.000;7.360;2022-11-27T02:58:19;2.10;91.80
39401;DHT22;54391;50.000;7.360;2022-11-27T03:00:49;2.10;92.60
39401;DHT22;54391;50.000;7.360;2022-11-27T03:03:19;2.10;91.00
39401;DHT22;54391;50.000;7.360;2022-11-27T03:05:50;2.00;90.80
39401;DHT22;54391;50.000;7.360;2022-11-27T03:08:22;2.00;90.70
39401;DHT22;54391;50.000;7.360;2022-11-27T03:10:59;2.00;90.40
39401;DHT22;54391;50.000;7.360;2022-11-27T03:13:30;2.00;90.20
39401;DHT22;54391;50.000;7.360;2022-11-27T03:16:09;2.00;90.20
39401;DHT22;54391;50.000;7.360;2022-11-27T03:18:43;2.00;89.60
39401;DHT22;54391;50.000;7.360;2022-11-27T03:21:20;2.00;89.20
39401;DHT22;54391;50.000;7.360;2022-11-27T03:26:17;2.10;88.60
39401;DHT22;54391;50.000;7.360;2022-11-27T03:28:45;2.10;88.90
39401;DHT22;54391;50.000;7.360;2022-11-27T03:31:15;2.00;88.70
39401;DHT22;54391;50.000;7.360;2022-11-27T03:33:42;2.00;88.30
39401;DHT22;54391;50.000;7.360;2022-11-27T03:36:12;1.90;87.70
39401;DHT22;54391;50.000;7.360;2022-11-27T03:38:40;2.00;88.00
39401;DHT22;54391;50.000;7.360;2022-11-27T03:41:12;2.00;87.60
39401;DHT22;54391;50.000;7.360;2022-11-27T03:43:45;2.10;87.60
39401;DHT22;54391;50.000;7.360;2022-11-27T03:46:21;2.10;87.50
39401;DHT22;54391;50.000;7.360;2022-11-27T03:49:02;2.10;87.10
39401;DHT22;54391;50.000;7.360;2022-11-27T03:51:40;2.10;87.20
39401;DHT22;54391;50.000;7.360;2022-11-27T03:54:11;2.10;87.10
39401;DHT22;54391;50.000;7.360;2022-11-27T03:56:44;2.20;86.90
39401;DHT22;54391;50.000;7.360;2022-11-27T03:59:18;2.20;87.80
39401;DHT22;54391;50.000;7.360;2022-11-27T04:01:48;2.20;86.80
39401;DHT22;54391;50.000;7.360;2022-11-27T04:04:16;2.30;86.50
39401;DHT22;54391;50.000;7.360;2022-11-27T04:06:44;2.30;86.80
39401;DHT22;54391;50.000;7.360;2022-11-27T04:09:11;2.30;86.40
39401;DHT22;54391;50.000;7.360;2022-11-27T04:11:39;2.30;86.80
39401;DHT22;54391;50.000;7.360;2022-11-27T04:14:06;2.30;87.60
39401;DHT22;54391;50.000;7.360;2022-11-27T04:16:34;2.30;87.20
39401;DHT22;54391;50.000;7.360;2022-11-27T04:19:03;2.40;86.90
39401;DHT22;54391;50.000;7.360;2022-11-27T04:21:30;2.40;87.20
39401;DHT22;54391;50.000;7.360;2022-11-27T04:23:58;2.40;87.40
39401;DHT22;54391;50.000;7.360;2022-11-27T04:26:25;2.40;87.00
39401;DHT22;54391;50.000;7.360;2022-11-27T04:28:52;2.40;88.10
39401;DHT22;54391;50.000;7.360;2022-11-27T04:31:20;2.50;88.40
39401;DHT22;54391;50.000;7.360;2022-11-27T04:33:52;2.60;87.50
39401;DHT22;54391;50.000;7.360;2022-11-27T04:36:21;2.60;88.30
39401;DHT22;54391;50.000;7.360;2022-11-27T04:38:49;2.60;88.20
39401;DHT22;54391;50.000;7.360;2022-11-27T04:41:16;2.50;88.90
39401;DHT22;54391;50.000;7.360;2022-11-27T04:43:44;2.50;88.90
39401;DHT22;54391;50.000;7.360;2022-11-27T04:46:11;2.50;90.10
39401;DHT22;54391;50.000;7.360;2022-11-27T04:48:39;2.60;88.70
39401;DHT22;54391;50.000;7.360;2022-11-27T04:51:06;2.50;89.30
39401;DHT22;54391;50.000;7.360;2022-11-27T04:53:35;2.50;89.30
39401;DHT22;54391;50.000;7.360;2022-11-27T04:56:03;2.50;89.60
39401;DHT22;54391;50.000;7.360;2022-11-27T04:58:31;2.50;90.30
39401;DHT22;54391;50.000;7.360;2022-11-27T05:00:58;2.50;89.90
39401;DHT22;54391;50.000;7.360;2022-11-27T05:03:28;2.50;90.30
39401;DHT22;54391;50.000;7.360;2022-11-27T05:05:56;2.40;90.20
39401;DHT22;54391;50.000;7.360;2022-11-27T05:08:24;2.40;90.20
39401;DHT22;54391;50.000;7.360;2022-11-27T05:11:00;2.30;90.60
39401;DHT22;54391;50.000;7.360;2022-11-27T05:13:28;2.40;90.00
39401;DHT22;54391;50.000;7.360;2022-11-27T05:15:56;2.40;90.00
39401;DHT22;54391;50.000;7.360;2022-11-27T05:18:23;2.40;89.80
39401;DHT22;54391;50.000;7.360;2022-11-27T05:20:55;2.40;90.70
39401;DHT22;54391;50.000;7.360;2022-11-27T05:23:24;2.50;89.80
39401;DHT22;54391;50.000;7.360;2022-11-27T05:25:51;2.50;89.70
39401;DHT22;54391;50.000;7.360;2022-11-27T05:28:21;2.50;89.90
39401;DHT22;54391;50.000;7.360;2022-11-27T05:30:49;2.50;89.90
39401;DHT22;54391;50.000;7.360;2022-11-27T05:33:17;2.50;90.10
39401;DHT22;54391;50.000;7.360;2022-11-27T05:35:45;2.50;91.00
39401;DHT22;54391;50.000;7.360;2022-11-27T05:38:12;2.50;91.70
39401;DHT22;54391;50.000;7.360;2022-11-27T05:40:40;2.50;90.70
39401;DHT22;54391;50.000;7.360;2022-11-27T05:43:07;2.50;90.40
39401;DHT22;54391;50.000;7.360;2022-11-27T05:45:37;2.50;90.90
39401;DHT22;54391;50.000;7.360;2022-11-27T05:48:05;2.50;91.90
39401;DHT22;54391;50.000;7.360;2022-11-27T05:50:32;2.50;90.80
39401;DHT22;54391;50.000;7.360;2022-11-27T05:53:00;2.50;90.60
39401;DHT22;54391;50.000;7.360;2022-11-27T05:55:29;2.50;90.50
39401;DHT22;54391;50.000;7.360;2022-11-27T05:57:57;2.40;90.40
39401;DHT22;54391;50.000;7.360;2022-11-27T06:00:25;2.50;90.10
39401;DHT22;54391;50.000;7.360;2022-11-27T06:02:54;2.50;90.00
39401;DHT22;54391;50.000;7.360;2022-11-27T06:05:22;2.50;90.00
39401;DHT22;54391;50.000;7.360;2022-11-27T06:12:45;2.40;89.60
39401;DHT22;54391;50.000;7.360;2022-11-27T06:15:12;2.50;89.40
39401;DHT22;54391;50.000;7.360;2022-11-27T06:17:40;2.50;89.10
39401;DHT22;54391;50.000;7.360;2022-11-27T06:20:09;2.50;89.10
39401;DHT22;54391;50.000;7.360;2022-11-27T06:22:37;2.50;88.90
39401;DHT22;54391;50.000;7.360;2022-11-27T06:25:05;2.50;88.70
39401;DHT22;54391;50.000;7.360;2022-11-27T06:27:32;2.40;89.30
39401;DHT22;54391;50.000;7.360;2022-11-27T06:30:00;2.50;89.40
39401;DHT22;54391;50.000;7.360;2022-11-27T06:32:28;2.50;88.90
39401;DHT22;54391;50.000;7.360;2022-11-27T06:37:25;2.50;87.90
39401;DHT22;54391;50.000;7.360;2022-11-27T06:39:53;2.50;87.90
39401;DHT22;54391;50.000;7.360;2022-11-27T06:42:20;2.50;87.90
39401;DHT22;54391;50.000;7.360;2022-11-27T06:44:48;2.50;87.70
39401;DHT22;54391;50.000;7.360;2022-11-27T06:47:15;2.60;89.50
39401;DHT22;54391;50.000;7.360;2022-11-27T06:49:43;2.60;88.70
39401;DHT22;54391;50.000;7.360;2022-11-27T06:52:10;2.60;87.60
39401;DHT22;54391;50.000;7.360;2022-11-27T06:54:39;2.60;87.80
39401;DHT22;54391;50.000;7.360;2022-11-27T06:57:07;2.60;87.80
39401;DHT22;54391;50.000;7.360;2022-11-27T06:59:34;-0.50;86.10
39401;DHT22;54391;50.000;7.360;2022-11-27T07:02:02;2.60;87.60
39401;DHT22;54391;50.000;7.360;2022-11-27T07:04:29;2.70;88.00
39401;DHT22;54391;50.000;7.360;2022-11-27T07:06:57;2.70;88.30
39401;DHT22;54391;50.000;7.360;2022-11-27T07:09:24;2.70;88.80
39401;DHT22;54391;50.000;7.360;2022-11-27T07:11:53;2.70;89.10
39401;DHT22;54391;50.000;7.360;2022-11-27T07:14:21;2.70;88.60
39401;DHT22;54391;50.000;7.360;2022-11-27T07:16:49;2.80;89.10
39401;DHT22;54391;50.000;7.360;2022-11-27T07:19:16;2.80;90.10
39401;DHT22;54391;50.000;7.360;2022-11-27T07:21:43;2.80;90.70
39401;DHT22;54391;50.000;7.360;2022-11-27T07:24:11;2.90;90.40
39401;DHT22;54391;50.000;7.360;2022-11-27T07:26:38;2.70;91.10
39401;DHT22;54391;50.000;7.360;2022-11-27T07:29:08;2.70;92.20
39401;DHT22;54391;50.000;7.360;2022-11-27T07:31:35;2.70;91.70
39401;DHT22;54391;50.000;7.360;2022-11-27T07:34:20;2.70;92.80
39401;DHT22;54391;50.000;7.360;2022-11-27T07:36:48;2.80;92.90
39401;DHT22;54391;50.000;7.360;2022-11-27T07:39:16;2.80;93.90
39401;DHT22;54391;50.000;7.360;2022-11-27T07:41:43;2.90;94.00
39401;DHT22;54391;50.000;7.360;2022-11-27T07:44:12;2.80;94.40
39401;DHT22;54391;50.000;7.360;2022-11-27T07:46:41;2.80;94.90
39401;DHT22;54391;50.000;7.360;2022-11-27T07:49:08;2.80;95.20
39401;DHT22;54391;50.000;7.360;2022-11-27T07:51:37;2.80;95.40
39401;DHT22;54391;50.000;7.360;2022-11-27T07:54:04;2.70;95.60
39401;DHT22;54391;50.000;7.360;2022-11-27T07:56:32;2.90;96.10
39401;DHT22;54391;50.000;7.360;2022-11-27T07:59:00;2.80;97.00
39401;DHT22;54391;50.000;7.360;2022-11-27T08:01:29;2.90;96.40
39401;DHT22;54391;50.000;7.360;2022-11-27T08:03:57;2.90;96.60
39401;DHT22;54391;50.000;7.360;2022-11-27T08:06:25;3.00;97.40
39401;DHT22;54391;50.000;7.360;2022-11-27T08:08:53;2.90;97.10
39401;DHT22;54391;50.000;7.360;2022-11-27T08:11:23;3.10;97.40
39401;DHT22;54391;50.000;7.360;2022-11-27T08:13:55;3.10;97.50
39401;DHT22;54391;50.000;7.360;2022-11-27T08:16:23;3.10;98.40
39401;DHT22;54391;50.000;7.360;2022-11-27T08:18:53;3.10;98.10
39401;DHT22;54391;50.000;7.360;2022-11-27T08:21:20;3.20;99.00
39401;DHT22;54391;50.000;7.360;2022-11-27T08:23:48;3.10;98.50
39401;DHT22;54391;50.000;7.360;2022-11-27T08:26:16;3.10;99.50
39401;DHT22;54391;50.000;7.360;2022-11-27T08:28:43;3.00;99.40
39401;DHT22;54391;50.000;7.360;2022-11-27T08:31:12;3.10;98.50
39401;DHT22;54391;50.000;7.360;2022-11-27T08:33:40;3.10;98.90
39401;DHT22;54391;50.000;7.360;2022-11-27T08:36:10;3.00;98.80
39401;DHT22;54391;50.000;7.360;2022-11-27T08:38:37;3.00;99.80
39401;DHT22;54391;50.000;7.360;2022-11-27T08:41:06;3.10;99.00
39401;DHT22;54391;50.000;7.360;2022-11-27T08:43:34;3.20;99.10
39401;DHT22;54391;50.000;7.360;2022-11-27T08:46:03;3.20;99.00
39401;DHT22;54391;50.000;7.360;2022-11-27T08:48:30;3.30;99.10
39401;DHT22;54391;50.000;7.360;2022-11-27T08:50:58;3.30;99.90
39401;DHT22;54391;50.000;7.360;2022-11-27T08:53:27;3.30;98.50
39401;DHT22;54391;50.000;7.360;2022-11-27T08:55:54;3.30;99.70
39401;DHT22;54391;50.000;7.360;2022-11-27T08:58:22;3.40;99.20
39401;DHT22;54391;50.000;7.360;2022-11-27T09:00:49;3.40;98.30
39401;DHT22;54391;50.000;7.360;2022-11-27T09:03:17;3.40;97.20
39401;DHT22;54391;50.000;7.360;2022-11-27T09:05:44;3.40;97.40
39401;DHT22;54391;50.000;7.360;2022-11-27T09:08:11;3.40;96.40
39401;DHT22;54391;50.000;7.360;2022-11-27T09:10:46;3.40;97.40
39401;DHT22;54391;50.000;7.360;2022-11-27T09:13:14;3.40;96.00
39401;DHT22;54391;50.000;7.360;2022-11-27T09:15:41;3.40;96.20
39401;DHT22;54391;50.000;7.360;2022-11-27T09:18:09;3.60;96.30
39401;DHT22;54391;50.000;7.360;2022-11-27T09:20:36;3.60;94.60
39401;DHT22;54391;50.000;7.360;2022-11-27T09:23:03;3.60;94.60
39401;DHT22;54391;50.000;7.360;2022-11-27T09:25:31;3.60;93.90
39401;DHT22;54391;50.000;7.360;2022-11-27T09:28:00;3.60;94.40
39401;DHT22;54391;50.000;7.360;2022-11-27T09:32:56;4.00;93.80
39401;DHT22;54391;50.000;7.360;2022-11-27T09:35:23;3.70;94.90
39401;DHT22;54391;50.000;7.360;2022-11-27T09:37:50;3.80;93.10
39401;DHT22;54391;50.000;7.360;2022-11-27T09:40:18;3.90;92.30
39401;DHT22;54391;50.000;7.360;2022-11-27T09:42:49;3.90;92.70
39401;DHT22;54391;50.000;7.360;2022-11-27T09:45:21;3.80;90.50
39401;DHT22;54391;50.000;7.360;2022-11-27T09:47:53;4.00;90.50
39401;DHT22;54391;50.000;7.360;2022-11-27T09:50:25;4.10;89.80
39401;DHT22;54391;50.000;7.360;2022-11-27T09:55:25;4.10;87.80
39401;DHT22;54391;50.000;7.360;2022-11-27T09:58:01;4.20;86.30
39401;DHT22;54391;50.000;7.360;2022-11-27T10:00:30;4.10;82.30
39401;DHT22;54391;50.000;7.360;2022-11-27T10:02:59;4.00;82.00
39401;DHT22;54391;50.000;7.360;2022-11-27T10:05:33;4.00;80.90
39401;DHT22;54391;50.000;7.360;2022-11-27T10:08:27;3.90;81.30
39401;DHT22;54391;50.000;7.360;2022-11-27T10:11:07;3.80;82.80
39401;DHT22;54391;50.000;7.360;2022-11-27T10:13:52;3.90;81.80
39401;DHT22;54391;50.000;7.360;2022-11-27T10:16:29;4.00;79.00
39401;DHT22;54391;50.000;7.360;2022-11-27T10:19:03;4.20;77.90
39401;DHT22;54391;50.000;7.360;2022-11-27T10:21:38;4.30;78.50
39401;DHT22;54391;50.000;7.360;2022-11-27T10:24:14;4.50;71.60
39401;DHT22;54391;50.000;7.360;2022-11-27T10:26:46;4.60;71.40
39401;DHT22;54391;50.000;7.360;2022-11-27T10:29:24;4.60;72.00
39401;DHT22;54391;50.000;7.360;2022-11-27T10:31:59;4.70;69.90
39401;DHT22;54391;50.000;7.360;2022-11-27T10:34:33;4.80;67.90
39401;DHT22;54391;50.000;7.360;2022-11-27T10:37:09;4.80;68.50
39401;DHT22;54391;50.000;7.360;2022-11-27T10:39:43;5.00;70.70
39401;DHT22;54391;50.000;7.360;2022-11-27T10:42:16;5.00;66.50
39401;DHT22;54391;50.000;7.360;2022-11-27T10:44:49;5.00;65.00
39401;DHT22;54391;50.000;7.360;2022-11-27T10:47:19;5.10;66.90
39401;DHT22;54391;50.000;7.360;2022-11-27T10:49:48;5.10;64.40
39401;DHT22;54391;50.000;7.360;2022-11-27T10:52:17;5.10;60.60
39401;DHT22;54391;50.000;7.360;2022-11-27T10:54:49;5.10;61.10
39401;DHT22;54391;50.000;7.360;2022-11-27T10:57:40;5.10;59.80
39401;DHT22;54391;50.000;7.360;2022-11-27T11:00:12;5.20;59.70
39401;DHT22;54391;50.000;7.360;2022-11-27T11:02:43;5.20;60.90
39401;DHT22;54391;50.000;7.360;2022-11-27T11:05:21;5.10;55.50
39401;DHT22;54391;50.000;7.360;2022-11-27T11:07:55;4.90;60.70
39401;DHT22;54391;50.000;7.360;2022-11-27T11:10:27;4.90;61.80
39401;DHT22;54391;50.000;7.360;2022-11-27T11:13:16;5.20;60.20
39401;DHT22;54391;50.000;7.360;2022-11-27T11:15:56;5.10;59.00
39401;DHT22;54391;50.000;7.360;2022-11-27T11:18:27;5.20;60.00
39401;DHT22;54391;50.000;7.360;2022-11-27T11:20:56;5.10;60.50
39401;DHT22;54391;50.000;7.360;2022-11-27T11:23:27;5.00;60.10
39401;DHT22;54391;50.000;7.360;2022-11-27T11:26:01;5.00;60.70
39401;DHT22;54391;50.000;7.360;2022-11-27T11:28:31;5.00;60.40
39401;DHT22;54391;50.000;7.360;2022-11-27T11:31:05;4.90;62.40
39401;DHT22;54391;50.000;7.360;2022-11-27T11:33:45;5.00;65.40
39401;DHT22;54391;50.000;7.360;2022-11-27T11:36:14;5.00;65.20
39401;DHT22;54391;50.000;7.360;2022-11-27T11:38:44;5.00;60.00
39401;DHT22;54391;50.000;7.360;2022-11-27T11:41:12;4.90;62.80
39401;DHT22;54391;50.000;7.360;2022-11-27T11:43:56;4.90;64.90
39401;DHT22;54391;50.000;7.360;2022-11-27T11:46:25;5.00;68.40
39401;DHT22;54391;50.000;7.360;2022-11-27T11:49:00;5.00;66.30
39401;DHT22;54391;50.000;7.360;2022-11-27T11:54:41;4.90;63.20
39401;DHT22;54391;50.000;7.360;2022-11-27T11:57:27;4.80;64.00
39401;DHT22;54391;50.000;7.360;2022-11-27T12:00:01;4.90;65.90
39401;DHT22;54391;50.000;7.360;2022-11-27T12:02:40;4.90;67.10
39401;DHT22;54391;50.000;7.360;2022-11-27T12:05:30;5.00;67.00
39401;DHT22;54391;50.000;7.360;2022-11-27T12:08:14;5.00;66.30
39401;DHT22;54391;50.000;7.360;2022-11-27T12:10:51;5.00;66.10
39401;DHT22;54391;50.000;7.360;2022-11-27T12:13:32;4.90;68.30
39401;DHT22;54391;50.000;7.360;2022-11-27T12:16:10;4.90;68.80
39401;DHT22;54391;50.000;7.360;2022-11-27T12:18:47;4.90;69.80
39401;DHT22;54391;50.000;7.360;2022-11-27T12:21:27;5.00;69.60
39401;DHT22;54391;50.000;7.360;2022-11-27T12:24:05;5.00;68.50
39401;DHT22;54391;50.000;7.360;2022-11-27T12:26:46;5.00;69.90
39401;DHT22;54391;50.000;7.360;2022-11-27T12:29:28;4.90;70.50
39401;DHT22;54391;50.000;7.360;2022-11-27T12:32:15;5.00;69.40
39401;DHT22;54391;50.000;7.360;2022-11-27T12:34:55;5.10;69.00
39401;DHT22;54391;50.000;7.360;2022-11-27T12:37:37;5.00;70.90
39401;DHT22;54391;50.000;7.360;2022-11-27T12:40:18;5.00;70.90
39401;DHT22;54391;50.000;7.360;2022-11-27T12:42:52;5.00;71.70
39401;DHT22;54391;50.000;7.360;2022-11-27T12:45:32;5.20;74.70
39401;DHT22;54391;50.000;7.360;2022-11-27T12:48:04;5.00;74.90
39401;DHT22;54391;50.000;7.360;2022-11-27T12:50:37;5.00;74.70
39401;DHT22;54391;50.000;7.360;2022-11-27T12:53:12;4.90;76.10
39401;DHT22;54391;50.000;7.360;2022-11-27T12:55:47;4.80;77.00
39401;DHT22;54391;50.000;7.360;2022-11-27T12:58:20;4.80;77.30
39401;DHT22;54391;50.000;7.360;2022-11-27T13:01:01;4.70;77.90
39401;DHT22;54391;50.000;7.360;2022-11-27T13:03:34;4.80;77.60
39401;DHT22;54391;50.000;7.360;2022-11-27T13:06:07;4.70;78.40
39401;DHT22;54391;50.000;7.360;2022-11-27T13:08:44;4.80;78.10
39401;DHT22;54391;50.000;7.360;2022-11-27T13:11:15;4.80;77.70
39401;DHT22;54391;50.000;7.360;2022-11-27T13:13:46;4.80;76.70
39401;DHT22;54391;50.000;7.360;2022-11-27T13:16:18;4.70;74.90
39401;DHT22;54391;50.000;7.360;2022-11-27T13:18:50;4.70;75.70
39401;DHT22;54391;50.000;7.360;2022-11-27T13:21:23;4.70;76.90
39401;DHT22;54391;50.000;7.360;2022-11-27T13:23:52;4.70;76.50
39401;DHT22;54391;50.000;7.360;2022-11-27T13:26:23;4.60;77.10
39401;DHT22;54391;50.000;7.360;2022-11-27T13:28:55;4.60;78.00
39401;DHT22;54391;50.000;7.360;2022-11-27T13:31:26;4.60;76.30
39401;DHT22;54391;50.000;7.360;2022-11-27T13:33:58;4.50;78.00
39401;DHT22;54391;50.000;7.360;2022-11-27T13:36:31;4.50;78.90
39401;DHT22;54391;50.000;7.360;2022-11-27T13:39:02;4.60;79.60
39401;DHT22;54391;50.000;7.360;2022-11-27T13:41:32;4.50;79.30
39401;DHT22;54391;50.000;7.360;2022-11-27T13:44:00;4.50;78.40
39401;DHT22;54391;50.000;7.360;2022-11-27T13:46:32;4.50;79.20
39401;DHT22;54391;50.000;7.360;2022-11-27T13:49:22;4.50;78.90
39401;DHT22;54391;50.000;7.360;2022-11-27T13:52:04;4.50;79.30
39401;DHT22;54391;50.000;7.360;2022-11-27T13:54:34;4.30;76.00
39401;DHT22;54391;50.000;7.360;2022-11-27T13:57:09;4.50;76.70
39401;DHT22;54391;50.000;7.360;2022-11-27T13:59:37;4.50;76.30
39401;DHT22;54391;50.000;7.360;2022-11-27T14:02:06;4.60;73.60
39401;DHT22;54391;50.000;7.360;2022-11-27T14:04:34;4.50;69.20
39401;DHT22;54391;50.000;7.360;2022-11-27T14:07:04;4.50;69.70
39401;DHT22;54391;50.000;7.360;2022-11-27T14:09:37;4.50;69.60
39401;DHT22;54391;50.000;7.360;2022-11-27T14:12:23;4.50;70.80
39401;DHT22;54391;50.000;7.360;2022-11-27T14:15:01;4.50;71.20
39401;DHT22;54391;50.000;7.360;2022-11-27T14:17:35;4.50;72.40
39401;DHT22;54391;50.000;7.360;2022-11-27T14:20:19;4.50;74.40
39401;DHT22;54391;50.000;7.360;2022-11-27T14:22:48;4.40;75.20
39401;DHT22;54391;50.000;7.360;2022-11-27T14:25:23;4.40;77.70
39401;DHT22;54391;50.000;7.360;2022-11-27T14:27:58;4.40;78.90
39401;DHT22;54391;50.000;7.360;2022-11-27T14:30:31;4.40;79.00
39401;DHT22;54391;50.000;7.360;2022-11-27T14:33:01;4.30;80.20
39401;DHT22;54391;50.000;7.360;2022-11-27T14:35:29;4.30;79.80
39401;DHT22;54391;50.000;7.360;2022-11-27T14:38:07;4.30;79.60
39401;DHT22;54391;50.000;7.360;2022-11-27T14:40:37;4.30;80.50
39401;DHT22;54391;50.000;7.360;2022-11-27T14:43:09;4.30;81.10
39401;DHT22;54391;50.000;7.360;2022-11-27T14:45:42;4.30;81.50
39401;DHT22;54391;50.000;7.360;2022-11-27T14:48:22;4.40;82.10
39401;DHT22;54391;50.000;7.360;2022-11-27T14:50:51;4.40;80.20
39401;DHT22;54391;50.000;7.360;2022-11-27T14:53:21;4.40;79.50
39401;DHT22;54391;50.000;7.360;2022-11-27T14:55:54;4.40;81.00
39401;DHT22;54391;50.000;7.360;2022-11-27T14:58:24;4.50;74.20
39401;DHT22;54391;50.000;7.360;2022-11-27T15:00:56;4.50;74.60
39401;DHT22;54391;50.000;7.360;2022-11-27T15:03:24;4.50;73.60
39401;DHT22;54391;50.000;7.360;2022-11-27T15:05:55;4.50;75.00
39401;DHT22;54391;50.000;7.360;2022-11-27T15:08:23;4.60;73.10
39401;DHT22;54391;50.000;7.360;2022-11-27T15:10:54;4.60;74.10
39401;DHT22;54391;50.000;7.360;2022-11-27T15:13:25;4.60;71.20
39401;DHT22;54391;50.000;7.360;2022-11-27T15:15:56;4.50;72.50
39401;DHT22;54391;50.000;7.360;2022-11-27T15:18:25;4.60;71.90
39401;DHT22;54391;50.000;7.360;2022-11-27T15:20:54;4.50;72.60
39401;DHT22;54391;50.000;7.360;2022-11-27T15:23:26;4.60;72.10
39401;DHT22;54391;50.000;7.360;2022-11-27T15:26:07;4.60;72.70
39401;DHT22;54391;50.000;7.360;2022-11-27T15:28:37;4.60;71.50
39401;DHT22;54391;50.000;7.360;2022-11-27T15:31:21;4.50;73.40
39401;DHT22;54391;50.000;7.360;2022-11-27T15:33:58;4.50;73.90
39401;DHT22;54391;50.000;7.360;2022-11-27T15:36:31;4.50;74.60
39401;DHT22;54391;50.000;7.360;2022-11-27T15:39:11;4.50;74.90
39401;DHT22;54391;50.000;7.360;2022-11-27T15:41:52;4.40;75.90
39401;DHT22;54391;50.000;7.360;2022-11-27T15:44:20;4.50;76.00
39401;DHT22;54391;50.000;7.360;2022-11-27T15:46:47;4.40;77.00
39401;DHT22;54391;50.000;7.360;2022-11-27T15:49:16;4.40;77.40
39401;DHT22;54391;50.000;7.360;2022-11-27T15:51:44;4.30;77.60
39401;DHT22;54391;50.000;7.360;2022-11-27T15:54:12;4.40;77.60
39401;DHT22;54391;50.000;7.360;2022-11-27T15:56:39;4.40;76.90
39401;DHT22;54391;50.000;7.360;2022-11-27T15:59:09;4.40;78.60
39401;DHT22;54391;50.000;7.360;2022-11-27T16:01:37;4.30;77.60
39401;DHT22;54391;50.000;7.360;2022-11-27T16:04:04;4.40;76.30
39401;DHT22;54391;50.000;7.360;2022-11-27T16:06:34;4.40;76.50
39401;DHT22;54391;50.000;7.360;2022-11-27T16:09:02;4.40;76.10
39401;DHT22;54391;50.000;7.360;2022-11-27T16:11:31;4.40;76.90
39401;DHT22;54391;50.000;7.360;2022-11-27T16:13:59;4.40;76.90
39401;DHT22;54391;50.000;7.360;2022-11-27T16:16:29;4.40;77.80
39401;DHT22;54391;50.000;7.360;2022-11-27T16:18:57;4.40;77.90
39401;DHT22;54391;50.000;7.360;2022-11-27T16:21:26;4.30;79.40
39401;DHT22;54391;50.000;7.360;2022-11-27T16:23:56;4.30;79.80
39401;DHT22;54391;50.000;7.360;2022-11-27T16:26:23;4.30;80.30
39401;DHT22;54391;50.000;7.360;2022-11-27T16:28:51;4.30;81.20